CheckWX is a tool to help pilots better visualize weather data.  It is not intended as a substitute for an official pre-flight weather briefing.

17:59:01 UTC

CYVV METAR
Wiarton Airport
Wiarton, , Canada
Current

50 mins ago

CYVV 171709Z 07015KT 15SM BKN025 BKN250 M08/M12 A3008 RMK SC6CI1 PRESFR SLP202
Observed
Feb-17 @ 17:09 UTC
Wind
  • 070° at 15 KTS
Visibility
15 SM
Flight Rules
MVFR
Cloud Levels
  • Broken at 2,500' AGL
  • Broken at 25,000' AGL
Temperature
-8°C / 18°F
Dewpoint
-12°C / 10°F
Humidity
73%
Altimeter
30.08" Hg
Pressure
1020.2 hPa
Previous

2 hours ago

CYVV 171600Z 09009KT 12SM -SN BKN018 BKN140 BKN250 M08/M13 A3010 RMK SC5AS1CI1 WND ESTD SLP209
Observed
Feb-17 @ 16:00 UTC
Wind
  • 090° at 9 KTS
Visibility
12 SM
Flight Rules
MVFR
Conditions
Light Snow
Cloud Levels
  • Broken at 1,800' AGL
  • Broken at 14,000' AGL
  • Broken at 25,000' AGL
Temperature
-8°C / 18°F
Dewpoint
-13°C / 9°F
Humidity
68%
Altimeter
30.1" Hg
Pressure
1020.9 hPa
Previous

3 hours ago

CYVV 171500Z 12007KT 12SM -SN SCT018 BKN250 M08/M12 A3012 RMK SC4CI3 SLP215
Observed
Feb-17 @ 15:00 UTC
Wind
  • 120° at 7 KTS
Visibility
12 SM
Flight Rules
VFR
Conditions
Light Snow
Cloud Levels
  • Scattered at 1,800' AGL
  • Broken at 25,000' AGL
Temperature
-8°C / 18°F
Dewpoint
-12°C / 10°F
Humidity
73%
Altimeter
30.12" Hg
Pressure
1021.5 hPa